Jack, Alabama
Current Conditions -  °F | °C
As of 7:56 AM on Monday 20 Oct 2014 (Local Time) from KSXS Reporting Station
Clear Clear  
Wind Chill: 54°   Ceiling: Unl
Heat Index: 54°   Visibility: 9mi
Dew Point: 51°   Wind: 2mph
Humidity: 89%   Direction: 30°NNE
Pressure: 30.11"   Gusts: NA
Location:  31.6°N, 85.91°W
Report Text: KSXS 201256Z AUTO 03002KT 9SM CLR 12/11 A3011 RMK AO2 SLP198 T01240107
Loading
Personal Weather Stations






























Interactive Weather Map
Tropical Storm Tracking
New forecast layout! Learn more

10-Day Weather Forecast

Advertisements
Track Severe Weather on mobile